sensor_id;sensor_type;location;lat;lon;timestamp;P1;durP1;ratioP1;P2;durP2;ratioP2
2404;SDS011;1213;43.206;27.922;2023-03-01T00:02:09;6.27;;;2.53;;
2404;SDS011;1213;43.206;27.922;2023-03-01T00:04:35;3.03;;;2.40;;
2404;SDS011;1213;43.206;27.922;2023-03-01T00:07:00;2.63;;;1.63;;
2404;SDS011;1213;43.206;27.922;2023-03-01T00:09:26;2.17;;;1.97;;
2404;SDS011;1213;43.206;27.922;2023-03-01T00:11:51;2.90;;;2.33;;
2404;SDS011;1213;43.206;27.922;2023-03-01T00:14:16;2.20;;;2.00;;
2404;SDS011;1213;43.206;27.922;2023-03-01T00:16:43;2.63;;;2.43;;
2404;SDS011;1213;43.206;27.922;2023-03-01T00:19:12;4.07;;;2.20;;
2404;SDS011;1213;43.206;27.922;2023-03-01T00:21:38;2.33;;;1.60;;
2404;SDS011;1213;43.206;27.922;2023-03-01T00:24:03;1.90;;;1.80;;
2404;SDS011;1213;43.206;27.922;2023-03-01T00:26:28;3.00;;;2.10;;
2404;SDS011;1213;43.206;27.922;2023-03-01T00:28:54;4.60;;;2.97;;
2404;SDS011;1213;43.206;27.922;2023-03-01T00:31:23;3.50;;;2.83;;
2404;SDS011;1213;43.206;27.922;2023-03-01T00:33:51;4.10;;;2.33;;
2404;SDS011;1213;43.206;27.922;2023-03-01T00:36:17;2.97;;;2.77;;
2404;SDS011;1213;43.206;27.922;2023-03-01T00:38:43;4.37;;;2.37;;
2404;SDS011;1213;43.206;27.922;2023-03-01T00:41:10;3.47;;;2.47;;
2404;SDS011;1213;43.206;27.922;2023-03-01T00:43:35;2.83;;;2.63;;
2404;SDS011;1213;43.206;27.922;2023-03-01T00:46:04;3.97;;;2.47;;
2404;SDS011;1213;43.206;27.922;2023-03-01T00:48:31;4.03;;;3.53;;
2404;SDS011;1213;43.206;27.922;2023-03-01T00:50:56;3.93;;;2.63;;
2404;SDS011;1213;43.206;27.922;2023-03-01T00:53:21;4.93;;;2.63;;
2404;SDS011;1213;43.206;27.922;2023-03-01T00:55:47;2.37;;;2.03;;
2404;SDS011;1213;43.206;27.922;2023-03-01T00:58:12;3.50;;;3.03;;
2404;SDS011;1213;43.206;27.922;2023-03-01T01:00:37;4.13;;;2.47;;
2404;SDS011;1213;43.206;27.922;2023-03-01T01:03:03;4.70;;;2.77;;
2404;SDS011;1213;43.206;27.922;2023-03-01T01:05:28;3.43;;;2.10;;
2404;SDS011;1213;43.206;27.922;2023-03-01T01:07:53;2.43;;;2.10;;
2404;SDS011;1213;43.206;27.922;2023-03-01T01:10:19;4.40;;;1.73;;
2404;SDS011;1213;43.206;27.922;2023-03-01T01:12:44;1.53;;;1.43;;
2404;SDS011;1213;43.206;27.922;2023-03-01T01:15:10;2.70;;;2.10;;
2404;SDS011;1213;43.206;27.922;2023-03-01T01:17:38;2.70;;;2.50;;
2404;SDS011;1213;43.206;27.922;2023-03-01T01:20:03;4.47;;;2.67;;
2404;SDS011;1213;43.206;27.922;2023-03-01T01:22:28;3.47;;;2.20;;
2404;SDS011;1213;43.206;27.922;2023-03-01T01:24:54;3.97;;;2.63;;
2404;SDS011;1213;43.206;27.922;2023-03-01T01:27:19;3.50;;;2.43;;
2404;SDS011;1213;43.206;27.922;2023-03-01T01:29:44;2.50;;;2.00;;
2404;SDS011;1213;43.206;27.922;2023-03-01T01:32:10;3.97;;;3.13;;
2404;SDS011;1213;43.206;27.922;2023-03-01T01:34:35;5.77;;;3.20;;
2404;SDS011;1213;43.206;27.922;2023-03-01T01:37:00;3.83;;;2.73;;
2404;SDS011;1213;43.206;27.922;2023-03-01T01:39:27;4.23;;;2.80;;
2404;SDS011;1213;43.206;27.922;2023-03-01T01:41:53;4.97;;;3.00;;
2404;SDS011;1213;43.206;27.922;2023-03-01T01:44:22;5.73;;;4.03;;
2404;SDS011;1213;43.206;27.922;2023-03-01T01:46:55;4.60;;;3.50;;
2404;SDS011;1213;43.206;27.922;2023-03-01T01:51:47;5.80;;;3.97;;
2404;SDS011;1213;43.206;27.922;2023-03-01T01:54:14;4.87;;;3.97;;
2404;SDS011;1213;43.206;27.922;2023-03-01T01:56:41;6.10;;;3.80;;
2404;SDS011;1213;43.206;27.922;2023-03-01T01:59:07;3.50;;;3.10;;
2404;SDS011;1213;43.206;27.922;2023-03-01T02:01:33;4.23;;;3.20;;
2404;SDS011;1213;43.206;27.922;2023-03-01T02:03:59;4.47;;;3.47;;
2404;SDS011;1213;43.206;27.922;2023-03-01T02:06:29;4.77;;;4.00;;
2404;SDS011;1213;43.206;27.922;2023-03-01T02:08:59;6.60;;;3.80;;
2404;SDS011;1213;43.206;27.922;2023-03-01T02:11:25;6.20;;;4.10;;
2404;SDS011;1213;43.206;27.922;2023-03-01T02:13:51;4.17;;;3.77;;
2404;SDS011;1213;43.206;27.922;2023-03-01T02:16:18;5.50;;;3.37;;
2404;SDS011;1213;43.206;27.922;2023-03-01T02:18:44;5.27;;;4.77;;
2404;SDS011;1213;43.206;27.922;2023-03-01T02:23:38;5.67;;;4.43;;
2404;SDS011;1213;43.206;27.922;2023-03-01T02:28:36;4.47;;;3.63;;
2404;SDS011;1213;43.206;27.922;2023-03-01T02:31:02;5.40;;;4.67;;
2404;SDS011;1213;43.206;27.922;2023-03-01T02:33:47;8.70;;;4.00;;
2404;SDS011;1213;43.206;27.922;2023-03-01T02:36:20;5.93;;;4.93;;
2404;SDS011;1213;43.206;27.922;2023-03-01T02:38:47;7.90;;;4.53;;
2404;SDS011;1213;43.206;27.922;2023-03-01T02:41:13;4.70;;;3.97;;
2404;SDS011;1213;43.206;27.922;2023-03-01T02:43:40;8.90;;;3.73;;
2404;SDS011;1213;43.206;27.922;2023-03-01T02:46:07;11.37;;;5.50;;
2404;SDS011;1213;43.206;27.922;2023-03-01T02:48:40;5.53;;;3.70;;
2404;SDS011;1213;43.206;27.922;2023-03-01T02:53:47;6.23;;;4.00;;
2404;SDS011;1213;43.206;27.922;2023-03-01T02:56:13;7.80;;;4.70;;
2404;SDS011;1213;43.206;27.922;2023-03-01T02:58:40;8.00;;;4.60;;
2404;SDS011;1213;43.206;27.922;2023-03-01T03:01:13;5.43;;;4.37;;
2404;SDS011;1213;43.206;27.922;2023-03-01T03:03:40;12.00;;;5.63;;
2404;SDS011;1213;43.206;27.922;2023-03-01T03:06:05;8.90;;;5.30;;
2404;SDS011;1213;43.206;27.922;2023-03-01T03:08:30;5.80;;;4.30;;
2404;SDS011;1213;43.206;27.922;2023-03-01T03:10:56;10.03;;;6.43;;
2404;SDS011;1213;43.206;27.922;2023-03-01T03:13:21;7.33;;;4.30;;
2404;SDS011;1213;43.206;27.922;2023-03-01T03:15:47;9.33;;;4.97;;
2404;SDS011;1213;43.206;27.922;2023-03-01T03:18:13;7.17;;;4.50;;
2404;SDS011;1213;43.206;27.922;2023-03-01T03:20:39;5.90;;;4.50;;
2404;SDS011;1213;43.206;27.922;2023-03-01T03:23:05;11.10;;;6.17;;
2404;SDS011;1213;43.206;27.922;2023-03-01T03:25:30;5.53;;;3.83;;
2404;SDS011;1213;43.206;27.922;2023-03-01T03:27:56;18.03;;;4.70;;
2404;SDS011;1213;43.206;27.922;2023-03-01T03:30:22;8.17;;;5.53;;
2404;SDS011;1213;43.206;27.922;2023-03-01T03:32:47;10.47;;;6.30;;
2404;SDS011;1213;43.206;27.922;2023-03-01T03:35:18;10.77;;;6.40;;
2404;SDS011;1213;43.206;27.922;2023-03-01T03:37:43;11.60;;;6.93;;
2404;SDS011;1213;43.206;27.922;2023-03-01T03:40:27;6.23;;;5.50;;
2404;SDS011;1213;43.206;27.922;2023-03-01T03:42:53;8.77;;;5.80;;
2404;SDS011;1213;43.206;27.922;2023-03-01T03:45:19;13.07;;;5.60;;
2404;SDS011;1213;43.206;27.922;2023-03-01T03:47:44;9.47;;;5.30;;
2404;SDS011;1213;43.206;27.922;2023-03-01T03:50:10;12.13;;;5.67;;
2404;SDS011;1213;43.206;27.922;2023-03-01T03:52:35;9.03;;;5.90;;
2404;SDS011;1213;43.206;27.922;2023-03-01T03:55:01;8.60;;;5.37;;
2404;SDS011;1213;43.206;27.922;2023-03-01T03:57:26;6.47;;;4.40;;
2404;SDS011;1213;43.206;27.922;2023-03-01T03:59:51;11.40;;;6.17;;
2404;SDS011;1213;43.206;27.922;2023-03-01T04:02:16;8.90;;;6.00;;
2404;SDS011;1213;43.206;27.922;2023-03-01T04:04:47;8.97;;;5.33;;
2404;SDS011;1213;43.206;27.922;2023-03-01T04:07:15;8.10;;;6.10;;
2404;SDS011;1213;43.206;27.922;2023-03-01T04:09:40;11.47;;;6.30;;
2404;SDS011;1213;43.206;27.922;2023-03-01T04:12:07;10.13;;;5.40;;
2404;SDS011;1213;43.206;27.922;2023-03-01T04:14:32;11.27;;;6.57;;
2404;SDS011;1213;43.206;27.922;2023-03-01T04:16:58;7.17;;;5.00;;
2404;SDS011;1213;43.206;27.922;2023-03-01T04:19:23;14.53;;;6.90;;
2404;SDS011;1213;43.206;27.922;2023-03-01T04:21:48;9.57;;;5.87;;
2404;SDS011;1213;43.206;27.922;2023-03-01T04:24:14;8.90;;;6.30;;
2404;SDS011;1213;43.206;27.922;2023-03-01T04:26:39;11.50;;;8.13;;
2404;SDS011;1213;43.206;27.922;2023-03-01T04:29:04;8.83;;;5.70;;
2404;SDS011;1213;43.206;27.922;2023-03-01T04:31:30;7.87;;;5.60;;
2404;SDS011;1213;43.206;27.922;2023-03-01T04:33:55;7.47;;;5.23;;
2404;SDS011;1213;43.206;27.922;2023-03-01T04:36:24;8.20;;;5.60;;
2404;SDS011;1213;43.206;27.922;2023-03-01T04:38:50;11.90;;;7.27;;
2404;SDS011;1213;43.206;27.922;2023-03-01T04:41:16;12.80;;;6.37;;
2404;SDS011;1213;43.206;27.922;2023-03-01T04:43:42;10.50;;;4.70;;
2404;SDS011;1213;43.206;27.922;2023-03-01T04:46:08;11.10;;;6.47;;
2404;SDS011;1213;43.206;27.922;2023-03-01T04:48:37;10.37;;;5.53;;
2404;SDS011;1213;43.206;27.922;2023-03-01T04:51:03;8.07;;;6.00;;
2404;SDS011;1213;43.206;27.922;2023-03-01T04:53:29;10.30;;;6.97;;
2404;SDS011;1213;43.206;27.922;2023-03-01T04:55:55;10.53;;;6.93;;
2404;SDS011;1213;43.206;27.922;2023-03-01T04:58:22;13.10;;;7.07;;
2404;SDS011;1213;43.206;27.922;2023-03-01T05:00:47;7.47;;;6.10;;
2404;SDS011;1213;43.206;27.922;2023-03-01T05:03:13;7.00;;;5.37;;
2404;SDS011;1213;43.206;27.922;2023-03-01T05:05:43;9.07;;;5.50;;
2404;SDS011;1213;43.206;27.922;2023-03-01T05:08:09;11.40;;;6.00;;
2404;SDS011;1213;43.206;27.922;2023-03-01T05:10:43;7.97;;;4.63;;
2404;SDS011;1213;43.206;27.922;2023-03-01T05:13:09;13.00;;;6.83;;
2404;SDS011;1213;43.206;27.922;2023-03-01T05:15:34;6.70;;;5.97;;
2404;SDS011;1213;43.206;27.922;2023-03-01T05:18:01;10.10;;;6.40;;
2404;SDS011;1213;43.206;27.922;2023-03-01T05:20:27;10.97;;;6.07;;
2404;SDS011;1213;43.206;27.922;2023-03-01T05:22:54;13.67;;;6.77;;
2404;SDS011;1213;43.206;27.922;2023-03-01T05:25:20;8.40;;;5.90;;
2404;SDS011;1213;43.206;27.922;2023-03-01T05:27:46;10.97;;;6.63;;
2404;SDS011;1213;43.206;27.922;2023-03-01T05:30:12;11.20;;;5.80;;
2404;SDS011;1213;43.206;27.922;2023-03-01T05:32:41;9.47;;;6.10;;
2404;SDS011;1213;43.206;27.922;2023-03-01T05:35:06;9.10;;;5.67;;
2404;SDS011;1213;43.206;27.922;2023-03-01T05:37:32;27.57;;;18.50;;
2404;SDS011;1213;43.206;27.922;2023-03-01T05:39:57;8.70;;;7.50;;
2404;SDS011;1213;43.206;27.922;2023-03-01T05:42:22;10.13;;;6.10;;
2404;SDS011;1213;43.206;27.922;2023-03-01T05:44:48;8.40;;;6.07;;
2404;SDS011;1213;43.206;27.922;2023-03-01T05:47:13;8.63;;;5.10;;
2404;SDS011;1213;43.206;27.922;2023-03-01T05:49:39;8.37;;;5.23;;
2404;SDS011;1213;43.206;27.922;2023-03-01T05:52:04;13.03;;;8.90;;
2404;SDS011;1213;43.206;27.922;2023-03-01T05:54:29;8.07;;;5.93;;
2404;SDS011;1213;43.206;27.922;2023-03-01T05:56:54;5.60;;;4.27;;
2404;SDS011;1213;43.206;27.922;2023-03-01T05:59:21;11.43;;;6.20;;
2404;SDS011;1213;43.206;27.922;2023-03-01T06:01:46;7.23;;;5.17;;
2404;SDS011;1213;43.206;27.922;2023-03-01T06:04:11;8.40;;;5.53;;
2404;SDS011;1213;43.206;27.922;2023-03-01T06:06:37;8.40;;;6.30;;
2404;SDS011;1213;43.206;27.922;2023-03-01T06:09:03;6.90;;;5.90;;
2404;SDS011;1213;43.206;27.922;2023-03-01T06:11:28;7.17;;;5.83;;
2404;SDS011;1213;43.206;27.922;2023-03-01T06:13:53;13.00;;;5.43;;
2404;SDS011;1213;43.206;27.922;2023-03-01T06:16:19;5.60;;;4.80;;
2404;SDS011;1213;43.206;27.922;2023-03-01T06:18:44;12.20;;;5.83;;
2404;SDS011;1213;43.206;27.922;2023-03-01T06:21:09;7.90;;;5.80;;
2404;SDS011;1213;43.206;27.922;2023-03-01T06:23:35;11.80;;;6.17;;
2404;SDS011;1213;43.206;27.922;2023-03-01T06:26:04;8.70;;;6.17;;
2404;SDS011;1213;43.206;27.922;2023-03-01T06:28:29;8.40;;;6.20;;
2404;SDS011;1213;43.206;27.922;2023-03-01T06:30:55;7.40;;;5.73;;
2404;SDS011;1213;43.206;27.922;2023-03-01T06:33:20;12.83;;;7.70;;
2404;SDS011;1213;43.206;27.922;2023-03-01T06:35:48;10.90;;;5.70;;
2404;SDS011;1213;43.206;27.922;2023-03-01T06:38:13;7.10;;;5.23;;
2404;SDS011;1213;43.206;27.922;2023-03-01T06:40:43;10.33;;;7.57;;
2404;SDS011;1213;43.206;27.922;2023-03-01T06:43:09;8.47;;;4.63;;
2404;SDS011;1213;43.206;27.922;2023-03-01T06:45:34;6.93;;;4.50;;
2404;SDS011;1213;43.206;27.922;2023-03-01T06:48:06;8.47;;;5.83;;
2404;SDS011;1213;43.206;27.922;2023-03-01T06:50:32;13.33;;;6.60;;
2404;SDS011;1213;43.206;27.922;2023-03-01T06:52:58;7.50;;;5.83;;
2404;SDS011;1213;43.206;27.922;2023-03-01T06:55:23;10.47;;;6.43;;
2404;SDS011;1213;43.206;27.922;2023-03-01T06:57:48;11.43;;;6.17;;
2404;SDS011;1213;43.206;27.922;2023-03-01T07:00:18;7.43;;;5.40;;
2404;SDS011;1213;43.206;27.922;2023-03-01T07:02:44;13.82;;;6.72;;
2404;SDS011;1213;43.206;27.922;2023-03-01T07:05:09;11.23;;;7.53;;
2404;SDS011;1213;43.206;27.922;2023-03-01T07:07:34;12.67;;;8.23;;
2404;SDS011;1213;43.206;27.922;2023-03-01T07:10:00;12.50;;;7.80;;
2404;SDS011;1213;43.206;27.922;2023-03-01T07:12:26;12.47;;;7.50;;
2404;SDS011;1213;43.206;27.922;2023-03-01T07:17:35;11.10;;;6.50;;
2404;SDS011;1213;43.206;27.922;2023-03-01T07:20:01;9.40;;;5.83;;
2404;SDS011;1213;43.206;27.922;2023-03-01T07:22:26;6.87;;;5.83;;
2404;SDS011;1213;43.206;27.922;2023-03-01T07:24:52;8.40;;;6.60;;
2404;SDS011;1213;43.206;27.922;2023-03-01T07:27:17;10.97;;;6.83;;
2404;SDS011;1213;43.206;27.922;2023-03-01T07:29:42;10.53;;;5.93;;
2404;SDS011;1213;43.206;27.922;2023-03-01T07:32:07;12.07;;;7.20;;
2404;SDS011;1213;43.206;27.922;2023-03-01T07:34:33;7.10;;;5.70;;
2404;SDS011;1213;43.206;27.922;2023-03-01T07:36:58;9.93;;;6.40;;
2404;SDS011;1213;43.206;27.922;2023-03-01T07:39:24;10.53;;;6.13;;
2404;SDS011;1213;43.206;27.922;2023-03-01T07:41:49;8.67;;;5.40;;
2404;SDS011;1213;43.206;27.922;2023-03-01T07:44:15;21.63;;;6.30;;
2404;SDS011;1213;43.206;27.922;2023-03-01T07:46:41;10.10;;;5.60;;
2404;SDS011;1213;43.206;27.922;2023-03-01T07:49:09;8.70;;;5.43;;
2404;SDS011;1213;43.206;27.922;2023-03-01T07:51:35;9.13;;;7.00;;
2404;SDS011;1213;43.206;27.922;2023-03-01T07:54:00;14.30;;;6.87;;
2404;SDS011;1213;43.206;27.922;2023-03-01T07:56:25;10.53;;;7.13;;
2404;SDS011;1213;43.206;27.922;2023-03-01T07:58:51;9.00;;;6.10;;
2404;SDS011;1213;43.206;27.922;2023-03-01T08:01:17;7.63;;;6.57;;
2404;SDS011;1213;43.206;27.922;2023-03-01T08:03:43;13.13;;;6.10;;
2404;SDS011;1213;43.206;27.922;2023-03-01T08:06:09;11.97;;;6.13;;
2404;SDS011;1213;43.206;27.922;2023-03-01T08:08:35;7.80;;;5.80;;
2404;SDS011;1213;43.206;27.922;2023-03-01T08:11:01;12.90;;;7.10;;
2404;SDS011;1213;43.206;27.922;2023-03-01T08:13:26;11.60;;;5.97;;
2404;SDS011;1213;43.206;27.922;2023-03-01T08:15:52;12.00;;;5.53;;
2404;SDS011;1213;43.206;27.922;2023-03-01T08:18:18;9.80;;;6.30;;
2404;SDS011;1213;43.206;27.922;2023-03-01T08:20:44;8.20;;;6.13;;
2404;SDS011;1213;43.206;27.922;2023-03-01T08:23:10;13.73;;;8.10;;
2404;SDS011;1213;43.206;27.922;2023-03-01T08:25:35;9.87;;;6.10;;
2404;SDS011;1213;43.206;27.922;2023-03-01T08:28:00;9.07;;;6.40;;
2404;SDS011;1213;43.206;27.922;2023-03-01T08:30:26;8.40;;;6.30;;
2404;SDS011;1213;43.206;27.922;2023-03-01T08:32:51;8.53;;;5.50;;
2404;SDS011;1213;43.206;27.922;2023-03-01T08:35:30;10.20;;;5.57;;
2404;SDS011;1213;43.206;27.922;2023-03-01T08:37:55;10.93;;;6.97;;
2404;SDS011;1213;43.206;27.922;2023-03-01T08:40:20;12.10;;;6.00;;
2404;SDS011;1213;43.206;27.922;2023-03-01T08:42:46;13.50;;;6.50;;
2404;SDS011;1213;43.206;27.922;2023-03-01T08:45:11;13.93;;;6.30;;
2404;SDS011;1213;43.206;27.922;2023-03-01T08:47:37;9.27;;;6.20;;
2404;SDS011;1213;43.206;27.922;2023-03-01T08:50:03;13.87;;;6.80;;
2404;SDS011;1213;43.206;27.922;2023-03-01T08:52:28;10.00;;;6.60;;
2404;SDS011;1213;43.206;27.922;2023-03-01T08:54:55;11.43;;;6.87;;
2404;SDS011;1213;43.206;27.922;2023-03-01T08:57:20;12.13;;;7.30;;
2404;SDS011;1213;43.206;27.922;2023-03-01T08:59:45;16.83;;;7.00;;
2404;SDS011;1213;43.206;27.922;2023-03-01T09:02:12;10.00;;;6.33;;
2404;SDS011;1213;43.206;27.922;2023-03-01T09:04:38;10.50;;;6.93;;
2404;SDS011;1213;43.206;27.922;2023-03-01T09:07:03;12.30;;;7.50;;
2404;SDS011;1213;43.206;27.922;2023-03-01T09:09:28;16.00;;;10.03;;
2404;SDS011;1213;43.206;27.922;2023-03-01T09:11:54;19.10;;;7.77;;
2404;SDS011;1213;43.206;27.922;2023-03-01T09:14:22;24.97;;;9.47;;
2404;SDS011;1213;43.206;27.922;2023-03-01T09:16:48;12.00;;;6.50;;
2404;SDS011;1213;43.206;27.922;2023-03-01T09:19:15;11.43;;;7.17;;
2404;SDS011;1213;43.206;27.922;2023-03-01T09:21:41;17.80;;;6.87;;
2404;SDS011;1213;43.206;27.922;2023-03-01T09:24:08;11.47;;;7.87;;
2404;SDS011;1213;43.206;27.922;2023-03-01T09:26:37;12.73;;;7.30;;
2404;SDS011;1213;43.206;27.922;2023-03-01T09:29:02;12.13;;;7.40;;
2404;SDS011;1213;43.206;27.922;2023-03-01T09:31:28;19.10;;;7.70;;
2404;SDS011;1213;43.206;27.922;2023-03-01T09:33:53;11.63;;;7.37;;
2404;SDS011;1213;43.206;27.922;2023-03-01T09:36:20;13.70;;;7.80;;
2404;SDS011;1213;43.206;27.922;2023-03-01T09:38:46;17.47;;;12.67;;
2404;SDS011;1213;43.206;27.922;2023-03-01T09:41:22;11.27;;;8.87;;
2404;SDS011;1213;43.206;27.922;2023-03-01T09:43:52;15.07;;;8.57;;
2404;SDS011;1213;43.206;27.922;2023-03-01T09:46:21;10.97;;;7.87;;
2404;SDS011;1213;43.206;27.922;2023-03-01T09:51:38;9.27;;;7.10;;
2404;SDS011;1213;43.206;27.922;2023-03-01T09:54:04;10.63;;;7.40;;
2404;SDS011;1213;43.206;27.922;2023-03-01T10:04:12;10.97;;;7.00;;
2404;SDS011;1213;43.206;27.922;2023-03-01T10:06:44;20.63;;;7.97;;
2404;SDS011;1213;43.206;27.922;2023-03-01T10:09:14;12.57;;;7.20;;
2404;SDS011;1213;43.206;27.922;2023-03-01T10:11:48;18.53;;;6.50;;
2404;SDS011;1213;43.206;27.922;2023-03-01T10:14:27;15.17;;;7.10;;
2404;SDS011;1213;43.206;27.922;2023-03-01T10:19:42;7.10;;;6.40;;
2404;SDS011;1213;43.206;27.922;2023-03-01T10:22:21;8.40;;;5.13;;
2404;SDS011;1213;43.206;27.922;2023-03-01T10:24:48;13.33;;;6.43;;
2404;SDS011;1213;43.206;27.922;2023-03-01T10:32:19;13.67;;;6.43;;
2404;SDS011;1213;43.206;27.922;2023-03-01T10:34:46;16.77;;;7.45;;
2404;SDS011;1213;43.206;27.922;2023-03-01T10:37:13;10.23;;;5.87;;
2404;SDS011;1213;43.206;27.922;2023-03-01T10:39:55;7.97;;;6.17;;
2404;SDS011;1213;43.206;27.922;2023-03-01T10:43:05;7.60;;;5.00;;
2404;SDS011;1213;43.206;27.922;2023-03-01T10:45:16;9.97;;;5.70;;
2404;SDS011;1213;43.206;27.922;2023-03-01T10:47:42;7.80;;;5.70;;
2404;SDS011;1213;43.206;27.922;2023-03-01T10:50:17;16.93;;;6.60;;
2404;SDS011;1213;43.206;27.922;2023-03-01T10:53:01;11.57;;;5.87;;
2404;SDS011;1213;43.206;27.922;2023-03-01T10:55:37;8.63;;;5.90;;
2404;SDS011;1213;43.206;27.922;2023-03-01T10:58:07;9.70;;;5.73;;
2404;SDS011;1213;43.206;27.922;2023-03-01T11:00:32;12.00;;;7.20;;
2404;SDS011;1213;43.206;27.922;2023-03-01T11:05:24;17.50;;;8.87;;
2404;SDS011;1213;43.206;27.922;2023-03-01T11:07:59;7.00;;;5.83;;
2404;SDS011;1213;43.206;27.922;2023-03-01T11:10:34;11.93;;;5.77;;
2404;SDS011;1213;43.206;27.922;2023-03-01T11:13:16;7.77;;;5.43;;
2404;SDS011;1213;43.206;27.922;2023-03-01T11:15:42;8.23;;;5.67;;
2404;SDS011;1213;43.206;27.922;2023-03-01T11:18:20;9.20;;;5.90;;
2404;SDS011;1213;43.206;27.922;2023-03-01T11:20:46;8.50;;;6.00;;
2404;SDS011;1213;43.206;27.922;2023-03-01T11:23:13;8.33;;;6.27;;
2404;SDS011;1213;43.206;27.922;2023-03-01T11:25:40;20.93;;;9.10;;
2404;SDS011;1213;43.206;27.922;2023-03-01T11:28:07;9.00;;;6.60;;
2404;SDS011;1213;43.206;27.922;2023-03-01T11:30:38;7.10;;;6.30;;
2404;SDS011;1213;43.206;27.922;2023-03-01T11:35:32;11.20;;;4.90;;
2404;SDS011;1213;43.206;27.922;2023-03-01T11:40:37;8.50;;;5.40;;
2404;SDS011;1213;43.206;27.922;2023-03-01T11:43:13;7.57;;;6.63;;
2404;SDS011;1213;43.206;27.922;2023-03-01T11:50:47;9.27;;;5.23;;
2404;SDS011;1213;43.206;27.922;2023-03-01T12:08:33;10.83;;;5.00;;
2404;SDS011;1213;43.206;27.922;2023-03-01T12:16:09;16.77;;;12.43;;
2404;SDS011;1213;43.206;27.922;2023-03-01T12:50:02;6.97;;;5.60;;
2404;SDS011;1213;43.206;27.922;2023-03-01T12:54:56;6.40;;;5.27;;
2404;SDS011;1213;43.206;27.922;2023-03-01T12:57:27;8.30;;;5.27;;
2404;SDS011;1213;43.206;27.922;2023-03-01T13:02:47;13.20;;;7.73;;
2404;SDS011;1213;43.206;27.922;2023-03-01T13:05:27;6.70;;;4.90;;
2404;SDS011;1213;43.206;27.922;2023-03-01T13:10:42;7.87;;;5.47;;
2404;SDS011;1213;43.206;27.922;2023-03-01T13:13:13;5.03;;;4.53;;
2404;SDS011;1213;43.206;27.922;2023-03-01T13:15:39;12.30;;;4.37;;
2404;SDS011;1213;43.206;27.922;2023-03-01T13:23:25;7.13;;;3.50;;
2404;SDS011;1213;43.206;27.922;2023-03-01T13:31:56;7.60;;;3.40;;
2404;SDS011;1213;43.206;27.922;2023-03-01T13:33:57;4.80;;;3.20;;
2404;SDS011;1213;43.206;27.922;2023-03-01T13:46:54;7.45;;;4.50;;
2404;SDS011;1213;43.206;27.922;2023-03-01T13:49:21;4.00;;;3.50;;
2404;SDS011;1213;43.206;27.922;2023-03-01T13:51:47;8.90;;;4.07;;
2404;SDS011;1213;43.206;27.922;2023-03-01T13:54:14;34.07;;;6.60;;
2404;SDS011;1213;43.206;27.922;2023-03-01T13:56:39;8.33;;;4.00;;
2404;SDS011;1213;43.206;27.922;2023-03-01T13:59:18;4.67;;;4.27;;
2404;SDS011;1213;43.206;27.922;2023-03-01T14:01:43;6.80;;;4.30;;
2404;SDS011;1213;43.206;27.922;2023-03-01T14:06:50;6.90;;;5.18;;
2404;SDS011;1213;43.206;27.922;2023-03-01T14:09:17;9.00;;;4.67;;
2404;SDS011;1213;43.206;27.922;2023-03-01T14:11:53;8.03;;;4.37;;
2404;SDS011;1213;43.206;27.922;2023-03-01T14:21:41;12.93;;;4.40;;
2404;SDS011;1213;43.206;27.922;2023-03-01T14:24:13;8.97;;;6.40;;
2404;SDS011;1213;43.206;27.922;2023-03-01T14:26:39;8.40;;;5.90;;
2404;SDS011;1213;43.206;27.922;2023-03-01T14:29:05;8.83;;;5.60;;
2404;SDS011;1213;43.206;27.922;2023-03-01T14:31:38;7.07;;;5.13;;
2404;SDS011;1213;43.206;27.922;2023-03-01T14:34:04;9.60;;;5.00;;
2404;SDS011;1213;43.206;27.922;2023-03-01T14:36:31;10.00;;;6.38;;
2404;SDS011;1213;43.206;27.922;2023-03-01T14:38:56;5.90;;;4.70;;
2404;SDS011;1213;43.206;27.922;2023-03-01T14:41:30;7.60;;;5.87;;
2404;SDS011;1213;43.206;27.922;2023-03-01T14:44:00;7.60;;;5.00;;
2404;SDS011;1213;43.206;27.922;2023-03-01T14:48:51;6.10;;;4.73;;
2404;SDS011;1213;43.206;27.922;2023-03-01T14:51:18;4.10;;;3.60;;
2404;SDS011;1213;43.206;27.922;2023-03-01T14:53:43;16.13;;;7.00;;
2404;SDS011;1213;43.206;27.922;2023-03-01T14:56:12;5.27;;;4.77;;
2404;SDS011;1213;43.206;27.922;2023-03-01T14:58:38;7.20;;;5.40;;
2404;SDS011;1213;43.206;27.922;2023-03-01T15:01:04;8.87;;;5.10;;
2404;SDS011;1213;43.206;27.922;2023-03-01T15:03:33;14.73;;;3.70;;
2404;SDS011;1213;43.206;27.922;2023-03-01T15:06:00;5.50;;;3.80;;
2404;SDS011;1213;43.206;27.922;2023-03-01T15:08:26;3.30;;;2.93;;
2404;SDS011;1213;43.206;27.922;2023-03-01T15:10:58;8.60;;;5.97;;
2404;SDS011;1213;43.206;27.922;2023-03-01T15:13:25;9.23;;;5.30;;
2404;SDS011;1213;43.206;27.922;2023-03-01T15:15:51;7.60;;;4.70;;
2404;SDS011;1213;43.206;27.922;2023-03-01T15:18:18;4.80;;;3.63;;
2404;SDS011;1213;43.206;27.922;2023-03-01T15:20:44;7.00;;;3.60;;
2404;SDS011;1213;43.206;27.922;2023-03-01T15:23:23;10.10;;;4.87;;
2404;SDS011;1213;43.206;27.922;2023-03-01T15:25:50;5.80;;;3.67;;
2404;SDS011;1213;43.206;27.922;2023-03-01T15:28:22;6.93;;;4.37;;
2404;SDS011;1213;43.206;27.922;2023-03-01T15:30:52;7.00;;;4.70;;
2404;SDS011;1213;43.206;27.922;2023-03-01T15:33:34;4.70;;;3.77;;
2404;SDS011;1213;43.206;27.922;2023-03-01T15:36:00;6.73;;;5.13;;
2404;SDS011;1213;43.206;27.922;2023-03-01T15:38:36;8.53;;;4.67;;
2404;SDS011;1213;43.206;27.922;2023-03-01T15:41:25;4.57;;;4.13;;
2404;SDS011;1213;43.206;27.922;2023-03-01T15:43:51;18.60;;;13.63;;
2404;SDS011;1213;43.206;27.922;2023-03-01T15:46:32;40.03;;;13.13;;
2404;SDS011;1213;43.206;27.922;2023-03-01T15:48:58;9.07;;;4.97;;
2404;SDS011;1213;43.206;27.922;2023-03-01T15:51:32;7.20;;;4.50;;
2404;SDS011;1213;43.206;27.922;2023-03-01T15:53:58;13.50;;;6.27;;
2404;SDS011;1213;43.206;27.922;2023-03-01T15:56:24;11.50;;;4.80;;
2404;SDS011;1213;43.206;27.922;2023-03-01T15:58:50;7.07;;;5.13;;
2404;SDS011;1213;43.206;27.922;2023-03-01T16:01:16;10.23;;;5.10;;
2404;SDS011;1213;43.206;27.922;2023-03-01T16:03:42;7.57;;;5.23;;
2404;SDS011;1213;43.206;27.922;2023-03-01T16:06:08;9.50;;;5.10;;
2404;SDS011;1213;43.206;27.922;2023-03-01T16:08:33;9.70;;;5.47;;
2404;SDS011;1213;43.206;27.922;2023-03-01T16:10:59;4.27;;;3.87;;
2404;SDS011;1213;43.206;27.922;2023-03-01T16:13:24;7.30;;;5.20;;
2404;SDS011;1213;43.206;27.922;2023-03-01T16:15:50;9.87;;;4.93;;
2404;SDS011;1213;43.206;27.922;2023-03-01T16:18:16;8.10;;;6.23;;
2404;SDS011;1213;43.206;27.922;2023-03-01T16:20:41;8.53;;;5.33;;
2404;SDS011;1213;43.206;27.922;2023-03-01T16:23:07;7.13;;;5.70;;
2404;SDS011;1213;43.206;27.922;2023-03-01T16:25:33;6.80;;;4.83;;
2404;SDS011;1213;43.206;27.922;2023-03-01T16:27:59;6.43;;;5.00;;
2404;SDS011;1213;43.206;27.922;2023-03-01T16:30:29;11.83;;;5.10;;
2404;SDS011;1213;43.206;27.922;2023-03-01T16:32:54;12.40;;;7.70;;
2404;SDS011;1213;43.206;27.922;2023-03-01T16:35:20;11.33;;;9.80;;
2404;SDS011;1213;43.206;27.922;2023-03-01T16:37:46;9.53;;;4.40;;
2404;SDS011;1213;43.206;27.922;2023-03-01T16:40:22;8.03;;;5.30;;
2404;SDS011;1213;43.206;27.922;2023-03-01T16:42:49;8.60;;;5.37;;
2404;SDS011;1213;43.206;27.922;2023-03-01T16:45:15;9.83;;;8.23;;
2404;SDS011;1213;43.206;27.922;2023-03-01T16:47:40;9.90;;;4.87;;
2404;SDS011;1213;43.206;27.922;2023-03-01T16:50:05;6.07;;;4.97;;
2404;SDS011;1213;43.206;27.922;2023-03-01T16:52:31;8.00;;;4.03;;
2404;SDS011;1213;43.206;27.922;2023-03-01T16:54:56;6.73;;;5.80;;
2404;SDS011;1213;43.206;27.922;2023-03-01T16:57:22;12.00;;;6.73;;
2404;SDS011;1213;43.206;27.922;2023-03-01T16:59:47;10.03;;;6.47;;
2404;SDS011;1213;43.206;27.922;2023-03-01T17:02:15;6.63;;;4.63;;
2404;SDS011;1213;43.206;27.922;2023-03-01T17:04:45;5.87;;;5.00;;
2404;SDS011;1213;43.206;27.922;2023-03-01T17:07:10;8.47;;;5.77;;
2404;SDS011;1213;43.206;27.922;2023-03-01T17:09:46;7.60;;;4.70;;
2404;SDS011;1213;43.206;27.922;2023-03-01T17:12:12;13.80;;;5.67;;
2404;SDS011;1213;43.206;27.922;2023-03-01T17:14:38;11.50;;;5.97;;